createdAt,value
2018-10-11T00:00:59.554Z,100362.69
2018-10-11T00:03:28.567Z,100368.81
2018-10-11T00:05:57.611Z,100354.77
2018-10-11T00:08:26.554Z,100372.70
2018-10-11T00:10:55.551Z,100366.50
2018-10-11T00:13:25.318Z,100376.77
2018-10-11T00:15:54.436Z,100377.03
2018-10-11T00:18:23.481Z,100381.89
2018-10-11T00:20:52.690Z,100379.99
2018-10-11T00:23:21.820Z,100400.55
2018-10-11T00:25:50.852Z,100384.06
2018-10-11T00:28:19.844Z,100382.78
2018-10-11T00:30:48.879Z,100396.95
2018-10-11T00:33:17.790Z,100377.81
2018-10-11T00:35:46.819Z,100389.23
2018-10-11T00:38:16.486Z,100390.92
2018-10-11T00:40:45.612Z,100389.86
2018-10-11T00:43:14.756Z,100382.05
2018-10-11T00:45:43.824Z,100382.78
2018-10-11T00:48:12.895Z,100381.25
2018-10-11T00:50:41.855Z,100390.81
2018-10-11T00:53:10.894Z,100383.09
2018-10-11T00:55:39.846Z,100383.98
2018-10-11T00:58:08.868Z,100382.63
2018-10-11T01:00:37.946Z,100369.29
2018-10-11T01:03:06.947Z,100369.94
2018-10-11T01:05:35.981Z,100374.55
2018-10-11T01:08:04.941Z,100368.09
2018-10-11T01:10:33.880Z,100365.30
2018-10-11T01:13:02.936Z,100368.81
2018-10-11T01:15:31.911Z,100365.31
2018-10-11T01:18:00.911Z,100353.61
2018-10-11T01:20:30.440Z,100368.31
2018-10-11T01:22:59.436Z,100367.38
2018-10-11T01:25:28.425Z,100366.48
2018-10-11T01:27:57.403Z,100365.77
2018-10-11T01:30:26.489Z,100367.12
2018-10-11T01:32:55.546Z,100361.22
2018-10-11T01:35:24.983Z,100359.86
2018-10-11T01:37:54.313Z,100359.69
2018-10-11T01:40:23.305Z,100357.97
2018-10-11T01:43:02.089Z,100355.14
2018-10-11T01:45:31.199Z,100347.14
2018-10-11T01:48:00.196Z,100352.78
2018-10-11T01:50:29.388Z,100357.62
2018-10-11T01:52:58.820Z,100348.05
2018-10-11T01:55:29.018Z,100349.13
2018-10-11T01:57:59.170Z,100349.28
2018-10-11T02:00:28.166Z,100344.51
2018-10-11T02:02:58.580Z,100341.77
2018-10-11T02:05:28.151Z,100345.72
2018-10-11T02:07:58.201Z,100349.14
2018-10-11T02:10:28.310Z,100347.38
2018-10-11T02:12:58.454Z,100350.42
2018-10-11T02:15:28.141Z,100354.55
2018-10-11T02:17:57.850Z,100346.28
2018-10-11T02:20:27.497Z,100359.95
2018-10-11T02:22:56.671Z,100349.99
2018-10-11T02:25:25.693Z,100351.00
2018-10-11T02:27:54.743Z,100352.87
2018-10-11T02:30:23.845Z,100347.77
2018-10-11T02:32:53.022Z,100343.98
2018-10-11T02:35:22.067Z,100339.84
2018-10-11T02:37:51.116Z,100341.06
2018-10-11T02:40:20.170Z,100344.50
2018-10-11T02:42:49.116Z,100343.13
2018-10-11T02:45:18.156Z,100340.51
2018-10-11T02:47:47.155Z,100339.88
2018-10-11T02:50:16.138Z,100340.95
2018-10-11T02:52:45.157Z,100340.86
2018-10-11T02:55:20.666Z,100334.10
2018-10-11T02:58:01.360Z,100334.80
2018-10-11T03:00:30.919Z,100332.89
2018-10-11T03:03:01.476Z,100334.15
2018-10-11T03:05:31.207Z,100328.41
2018-10-11T03:08:00.197Z,100321.79
2018-10-11T03:10:29.503Z,100321.06
2018-10-11T03:12:58.482Z,100319.23
2018-10-11T03:15:27.475Z,100307.69
2018-10-11T03:17:56.450Z,100316.27
2018-10-11T03:20:25.449Z,100315.37
2018-10-11T03:22:54.443Z,100316.91
2018-10-11T03:25:23.435Z,100324.09
2018-10-11T03:27:52.435Z,100322.74
2018-10-11T03:30:21.403Z,100315.56
2018-10-11T03:32:50.435Z,100315.09
2018-10-11T03:35:19.448Z,100311.58
2018-10-11T03:37:48.435Z,100308.92
2018-10-11T03:40:17.434Z,100308.99
2018-10-11T03:42:46.488Z,100309.46
2018-10-11T03:45:15.474Z,100304.42
2018-10-11T03:47:44.467Z,100301.23
2018-10-11T03:50:13.476Z,100294.77
2018-10-11T03:52:42.480Z,100289.77
2018-10-11T03:55:11.491Z,100289.34
2018-10-11T03:57:40.453Z,100283.11
2018-10-11T04:00:09.470Z,100271.09
2018-10-11T04:02:38.442Z,100267.37
2018-10-11T04:05:07.464Z,100263.98
2018-10-11T04:07:36.453Z,100276.84
2018-10-11T04:10:05.483Z,100273.70
2018-10-11T04:12:34.556Z,100266.45
2018-10-11T04:15:03.522Z,100274.14
2018-10-11T04:17:32.526Z,100270.09
2018-10-11T04:20:01.529Z,100275.80
2018-10-11T04:22:31.508Z,100260.13
2018-10-11T04:25:00.501Z,100254.55
2018-10-11T04:27:29.500Z,100248.88
2018-10-11T04:29:58.541Z,100248.34
2018-10-11T04:32:27.508Z,100246.98
2018-10-11T04:34:56.499Z,100241.61
2018-10-11T04:37:25.478Z,100241.61
2018-10-11T04:39:54.499Z,100239.08
2018-10-11T04:42:23.494Z,100242.11
2018-10-11T04:44:52.495Z,100242.84
2018-10-11T04:47:21.486Z,100227.55
2018-10-11T04:49:50.484Z,100224.48
2018-10-11T04:52:19.442Z,100220.46
2018-10-11T04:54:48.488Z,100209.95
2018-10-11T04:57:17.535Z,100200.19
2018-10-11T04:59:46.696Z,100192.00
2018-10-11T05:02:15.627Z,100199.09
2018-10-11T05:04:44.672Z,100195.27
2018-10-11T05:07:13.762Z,100197.13
2018-10-11T05:09:42.737Z,100192.70
2018-10-11T05:12:11.684Z,100184.17
2018-10-11T05:14:40.950Z,100201.78
2018-10-11T05:17:10.071Z,100199.23
2018-10-11T05:19:39.811Z,100199.72
2018-10-11T05:22:08.805Z,100213.20
2018-10-11T05:24:37.877Z,100207.16
2018-10-11T05:27:06.899Z,100210.42
2018-10-11T05:29:35.988Z,100213.38
2018-10-11T05:32:05.080Z,100196.59
2018-10-11T05:34:34.009Z,100190.17
2018-10-11T05:37:03.003Z,100196.67
2018-10-11T05:39:32.016Z,100187.94
2018-10-11T05:42:00.981Z,100197.74
2018-10-11T05:44:30.022Z,100190.42
2018-10-11T05:46:58.911Z,100199.97
2018-10-11T05:49:27.942Z,100198.69
2018-10-11T05:51:56.983Z,100199.09
2018-10-11T05:54:26.062Z,100197.69
2018-10-11T05:56:55.101Z,100202.46
2018-10-11T05:59:24.143Z,100190.33
2018-10-11T06:01:53.172Z,100202.74
2018-10-11T06:04:22.197Z,100184.55
2018-10-11T06:06:51.290Z,100203.02
2018-10-11T06:09:20.502Z,100191.61
2018-10-11T06:11:49.710Z,100197.84
2018-10-11T06:14:18.658Z,100190.27
2018-10-11T06:16:47.750Z,100203.80
2018-10-11T06:19:16.757Z,100201.59
2018-10-11T06:21:45.834Z,100206.45
2018-10-11T06:24:14.838Z,100215.62
2018-10-11T06:26:43.899Z,100214.87
2018-10-11T06:29:12.894Z,100220.63
2018-10-11T06:31:42.534Z,100229.24
2018-10-11T06:34:11.602Z,100214.13
2018-10-11T06:36:41.693Z,100217.82
2018-10-11T06:39:11.527Z,100214.97
2018-10-11T06:41:40.472Z,100218.76
2018-10-11T06:44:10.017Z,100219.11
2018-10-11T06:46:39.176Z,100223.00
2018-10-11T06:49:08.566Z,100252.12
2018-10-11T06:51:37.631Z,100224.42
2018-10-11T06:54:06.750Z,100233.00
2018-10-11T06:56:35.708Z,100229.64
2018-10-11T06:59:04.722Z,100231.91
2018-10-11T07:01:33.796Z,100236.22
2018-10-11T07:04:02.792Z,100241.22
2018-10-11T07:06:31.790Z,100227.45
2018-10-11T07:09:00.796Z,100226.39
2018-10-11T07:11:29.768Z,100231.29
2018-10-11T07:13:59.831Z,100232.14
2018-10-11T07:16:28.883Z,100227.70
2018-10-11T07:18:58.111Z,100229.64
2018-10-11T07:21:27.322Z,100232.46
2018-10-11T07:23:56.342Z,100231.10
2018-10-11T07:26:25.370Z,100226.16
2018-10-11T07:28:54.419Z,100224.41
2018-10-11T07:31:23.509Z,100215.47
2018-10-11T07:33:52.529Z,100235.53
2018-10-11T07:36:21.673Z,100249.91
2018-10-11T07:38:50.695Z,100231.56
2018-10-11T07:41:19.658Z,100223.48
2018-10-11T07:43:48.668Z,100236.87
2018-10-11T07:46:17.678Z,100241.27
2018-10-11T07:48:46.662Z,100232.87
2018-10-11T07:51:15.675Z,100233.69
2018-10-11T07:53:44.680Z,100234.34
2018-10-11T07:56:13.746Z,100252.27
2018-10-11T07:58:42.782Z,100231.50
2018-10-11T08:01:11.817Z,100242.82
2018-10-11T08:03:40.827Z,100211.03
2018-10-11T08:06:09.794Z,100223.34
2018-10-11T08:08:38.767Z,100225.17
2018-10-11T08:11:08.180Z,100222.67
2018-10-11T08:13:37.053Z,100223.04
2018-10-11T08:16:06.760Z,100220.59
2018-10-11T08:18:35.747Z,100219.19
2018-10-11T08:21:04.727Z,100241.42
2018-10-11T08:23:33.928Z,100225.36
2018-10-11T08:26:03.511Z,100222.88
2018-10-11T08:28:31.980Z,100215.91
2018-10-11T08:31:00.991Z,100213.17
2018-10-11T08:33:30.004Z,100221.16
2018-10-11T08:35:58.987Z,100225.09
2018-10-11T08:38:28.045Z,100215.84
2018-10-11T08:40:57.113Z,100223.04
2018-10-11T08:43:26.620Z,100221.39
2018-10-11T08:45:55.607Z,100219.33
2018-10-11T08:48:24.669Z,100237.73
2018-10-11T08:50:53.691Z,100220.84
2018-10-11T08:53:22.651Z,100213.14
2018-10-11T08:55:51.631Z,100226.87
2018-10-11T08:58:20.651Z,100223.78
2018-10-11T09:00:49.614Z,100225.95
2018-10-11T09:03:18.700Z,100256.09
2018-10-11T09:05:47.604Z,100227.93
2018-10-11T09:08:16.588Z,100254.87
2018-10-11T09:10:45.671Z,100232.52
2018-10-11T09:13:14.661Z,100243.98
2018-10-11T09:15:44.714Z,100254.72
2018-10-11T09:18:13.745Z,100242.60
2018-10-11T09:20:42.782Z,100254.14
2018-10-11T09:23:11.858Z,100258.64
2018-10-11T09:25:40.901Z,100261.17
2018-10-11T09:28:10.100Z,100260.64
2018-10-11T09:30:39.115Z,100259.73
2018-10-11T09:33:08.252Z,100264.51
2018-10-11T09:35:37.308Z,100263.06
2018-10-11T09:38:06.308Z,100253.38
2018-10-11T09:40:35.315Z,100251.02
2018-10-11T09:43:04.454Z,100259.14
2018-10-11T09:45:33.466Z,100253.42
2018-10-11T09:48:02.537Z,100242.02
2018-10-11T09:50:32.367Z,100244.63
2018-10-11T09:53:01.396Z,100241.92
2018-10-11T09:55:30.384Z,100236.92
2018-10-11T09:57:59.439Z,100249.56
2018-10-11T10:00:37.586Z,100249.30
2018-10-11T10:03:06.630Z,100235.28
2018-10-11T10:05:35.674Z,100250.56
2018-10-11T10:08:04.629Z,100248.11
2018-10-11T10:10:33.664Z,100243.63
2018-10-11T10:13:02.619Z,100242.56
2018-10-11T10:15:31.689Z,100243.50
2018-10-11T10:18:00.648Z,100242.89
2018-10-11T10:20:29.630Z,100237.19
2018-10-11T10:22:58.666Z,100237.41
2018-10-11T10:25:28.184Z,100227.94
2018-10-11T10:27:56.696Z,100241.45
2018-10-11T10:30:31.024Z,100240.86
2018-10-11T10:33:00.007Z,100241.64
2018-10-11T10:35:29.017Z,100251.86
2018-10-11T10:37:58.091Z,100240.16
2018-10-11T10:40:27.139Z,100230.13
2018-10-11T10:42:56.495Z,100240.22
2018-10-11T10:45:25.506Z,100230.97
2018-10-11T10:47:54.522Z,100227.91
2018-10-11T10:50:23.516Z,100226.76
2018-10-11T10:52:52.555Z,100220.26
2018-10-11T10:55:21.802Z,100228.78
2018-10-11T10:57:50.779Z,100216.23
2018-10-11T11:00:19.781Z,100219.44
2018-10-11T11:02:48.783Z,100211.26
2018-10-11T11:05:17.774Z,100197.70
2018-10-11T11:07:46.858Z,100205.28
2018-10-11T11:10:15.825Z,100192.75
2018-10-11T11:12:44.851Z,100191.09
2018-10-11T11:15:13.812Z,100191.46
2018-10-11T11:17:42.869Z,100190.45
2018-10-11T11:20:11.964Z,100192.84
2018-10-11T11:22:40.912Z,100184.86
2018-10-11T11:25:09.942Z,100188.64
2018-10-11T11:27:38.923Z,100181.64
2018-10-11T11:30:07.956Z,100180.26
2018-10-11T11:32:36.907Z,100194.70
2018-10-11T11:35:05.929Z,100178.36
2018-10-11T11:37:35.852Z,100167.52
2018-10-11T11:40:05.233Z,100174.26
2018-10-11T11:42:34.254Z,100167.16
2018-10-11T11:45:03.374Z,100150.61
2018-10-11T11:47:32.562Z,100147.66
2018-10-11T11:50:01.627Z,100160.56
2018-10-11T11:52:30.653Z,100168.47
2018-10-11T11:54:59.707Z,100163.52
2018-10-11T11:57:28.698Z,100155.01
2018-10-11T11:59:57.665Z,100149.14
2018-10-11T12:02:26.705Z,100142.77
2018-10-11T12:04:55.758Z,100126.09
2018-10-11T12:07:24.748Z,100137.28
2018-10-11T12:09:53.773Z,100128.98
2018-10-11T12:13:06.625Z,100141.80
2018-10-11T12:15:36.399Z,100131.35
2018-10-11T12:18:06.212Z,100130.17
2018-10-11T12:20:36.360Z,100121.57
2018-10-11T12:23:06.463Z,100125.89
2018-10-11T12:25:35.637Z,100130.00
2018-10-11T12:28:04.644Z,100134.89
2018-10-11T12:30:33.650Z,100135.97
2018-10-11T12:33:02.644Z,100147.03
2018-10-11T12:35:32.636Z,100136.46
2018-10-11T12:38:01.651Z,100132.66
2018-10-11T12:40:30.640Z,100136.16
2018-10-11T12:42:59.629Z,100134.09
2018-10-11T12:45:28.614Z,100140.48
2018-10-11T12:47:57.646Z,100135.73
2018-10-11T12:50:26.640Z,100136.50
2018-10-11T12:52:55.590Z,100139.67
2018-10-11T12:55:24.592Z,100139.05
2018-10-11T12:57:53.615Z,100131.73
2018-10-11T13:00:22.654Z,100133.50
2018-10-11T13:02:51.789Z,100125.26
2018-10-11T13:05:20.694Z,100123.25
2018-10-11T13:07:50.158Z,100119.89
2018-10-11T13:10:19.210Z,100130.96
2018-10-11T13:12:48.178Z,100130.98
2018-10-11T13:15:17.221Z,100134.33
2018-10-11T13:17:46.262Z,100133.92
2018-10-11T13:20:15.276Z,100127.34
2018-10-11T13:22:44.248Z,100124.17
2018-10-11T13:25:13.243Z,100125.58
2018-10-11T13:27:42.226Z,100140.33
2018-10-11T13:30:11.424Z,100132.35
2018-10-11T13:32:40.421Z,100136.23
2018-10-11T13:35:09.503Z,100134.03
2018-10-11T13:37:38.409Z,100136.09
2018-10-11T13:40:07.806Z,100142.40
2018-10-11T13:42:36.805Z,100130.58
2018-10-11T13:45:05.901Z,100126.99
2018-10-11T13:47:37.881Z,100133.02
2018-10-11T13:50:03.937Z,100137.27
2018-10-11T13:52:32.884Z,100133.03
2018-10-11T13:55:08.120Z,100140.19
2018-10-11T13:57:31.436Z,100127.39
2018-10-11T13:59:59.917Z,100134.70
2018-10-11T14:02:28.930Z,100141.16
2018-10-11T14:04:58.000Z,100129.20
2018-10-11T14:07:27.990Z,100137.73
2018-10-11T14:09:56.962Z,100131.72
2018-10-11T14:12:25.985Z,100130.52
2018-10-11T14:14:54.992Z,100125.88
2018-10-11T14:17:23.990Z,100127.57
2018-10-11T14:19:52.977Z,100139.31
2018-10-11T14:22:21.979Z,100125.56
2018-10-11T14:24:50.972Z,100138.59
2018-10-11T14:27:19.939Z,100133.84
2018-10-11T14:29:48.929Z,100134.74
2018-10-11T14:32:17.935Z,100137.44
2018-10-11T14:34:46.903Z,100135.55
2018-10-11T14:37:16.018Z,100129.81
2018-10-11T14:39:44.922Z,100139.11
2018-10-11T14:42:14.026Z,100133.74
2018-10-11T14:44:43.030Z,100131.70
2018-10-11T14:47:12.125Z,100119.57
2018-10-11T14:49:41.135Z,100129.30
2018-10-11T14:52:10.324Z,100121.98
2018-10-11T14:54:39.429Z,100123.25
2018-10-11T14:57:08.473Z,100114.61
2018-10-11T14:59:37.578Z,100112.08
2018-10-11T15:02:06.488Z,100110.92
2018-10-11T15:04:35.472Z,100113.38
2018-10-11T15:07:04.471Z,100107.34
2018-10-11T15:09:33.464Z,100109.04
2018-10-11T15:12:02.494Z,100120.44
2018-10-11T15:14:31.563Z,100111.31
2018-10-11T15:17:00.573Z,100120.61
2018-10-11T15:19:29.532Z,100113.93
2018-10-11T15:21:58.505Z,100118.73
2018-10-11T15:24:27.530Z,100114.26
2018-10-11T15:26:56.573Z,100134.72
2018-10-11T15:29:25.684Z,100133.55
2018-10-11T15:31:54.623Z,100129.90
2018-10-11T15:34:23.619Z,100133.23
2018-10-11T15:36:52.658Z,100138.81
2018-10-11T15:39:21.679Z,100144.53
2018-10-11T15:41:50.743Z,100148.18
2018-10-11T15:44:19.823Z,100149.74
2018-10-11T15:46:48.923Z,100147.14
2018-10-11T15:49:18.048Z,100155.05
2018-10-11T15:51:46.970Z,100147.39
2018-10-11T15:54:15.977Z,100154.61
2018-10-11T15:56:44.976Z,100153.53
2018-10-11T15:59:14.059Z,100150.46
2018-10-11T16:01:43.064Z,100150.68
2018-10-11T16:04:12.026Z,100154.64
2018-10-11T16:06:41.154Z,100158.95
2018-10-11T16:09:10.760Z,100157.16
2018-10-11T16:11:39.641Z,100164.98
2018-10-11T16:14:08.670Z,100165.59
2018-10-11T16:16:37.663Z,100167.94
2018-10-11T16:19:06.858Z,100178.95
2018-10-11T16:21:35.908Z,100177.38
2018-10-11T16:24:04.952Z,100182.04
2018-10-11T16:26:33.936Z,100187.45
2018-10-11T16:29:02.896Z,100188.83
2018-10-11T16:31:31.972Z,100185.95
2018-10-11T16:34:01.178Z,100183.78
2018-10-11T16:36:30.382Z,100187.16
2018-10-11T16:38:59.447Z,100192.32
2018-10-11T16:41:28.381Z,100182.98
2018-10-11T16:43:57.381Z,100187.71
2018-10-11T16:46:26.365Z,100185.57
2018-10-11T16:48:55.371Z,100188.50
2018-10-11T16:51:24.341Z,100192.73
2018-10-11T16:53:53.332Z,100188.78
2018-10-11T16:56:22.341Z,100193.61
2018-10-11T16:58:51.323Z,100195.16
2018-10-11T17:01:20.463Z,100197.28
2018-10-11T17:03:49.436Z,100201.31
2018-10-11T17:06:18.445Z,100203.43
2018-10-11T17:08:47.422Z,100204.05
2018-10-11T17:11:16.432Z,100209.50
2018-10-11T17:13:45.398Z,100218.74
2018-10-11T17:16:14.647Z,100217.64
2018-10-11T17:18:43.718Z,100217.70
2018-10-11T17:21:12.734Z,100215.32
2018-10-11T17:23:41.828Z,100220.02
2018-10-11T17:26:10.768Z,100223.58
2018-10-11T17:28:39.849Z,100228.33
2018-10-11T17:31:09.070Z,100229.17
2018-10-11T17:33:38.144Z,100229.89
2018-10-11T17:36:07.707Z,100239.19
2018-10-11T17:38:36.968Z,100240.48
2018-10-11T17:41:06.270Z,100238.79
2018-10-11T17:43:35.460Z,100234.59
2018-10-11T17:46:04.650Z,100243.51
2018-10-11T17:48:33.836Z,100242.85
2018-10-11T17:51:02.983Z,100240.58
2018-10-11T17:53:31.987Z,100240.01
2018-10-11T17:56:01.105Z,100244.09
2018-10-11T17:58:30.135Z,100249.09
2018-10-11T18:00:59.183Z,100246.17
2018-10-11T18:03:29.035Z,100247.08
2018-10-11T18:05:58.094Z,100248.89
2018-10-11T18:08:27.054Z,100252.75
2018-10-11T18:10:56.175Z,100254.23
2018-10-11T18:13:25.239Z,100253.67
2018-10-11T18:15:54.281Z,100252.64
2018-10-11T18:18:23.258Z,100251.61
2018-10-11T18:20:52.283Z,100256.37
2018-10-11T18:23:21.333Z,100254.09
2018-10-11T18:25:50.366Z,100250.83
2018-10-11T18:28:19.418Z,100253.67
2018-10-11T18:30:48.502Z,100251.63
2018-10-11T18:33:17.532Z,100256.73
2018-10-11T18:35:46.824Z,100258.29
2018-10-11T18:38:15.733Z,100265.84
2018-10-11T18:40:44.726Z,100267.86
2018-10-11T18:43:13.738Z,100267.26
2018-10-11T18:45:43.061Z,100274.78
2018-10-11T18:48:12.150Z,100278.98
2018-10-11T18:50:41.301Z,100284.25
2018-10-11T18:53:10.351Z,100283.05
2018-10-11T18:55:39.416Z,100281.47
2018-10-11T18:58:08.506Z,100289.17
2018-10-11T19:00:37.712Z,100286.02
2018-10-11T19:03:07.236Z,100287.81
2018-10-11T19:05:36.270Z,100288.63
2018-10-11T19:08:05.309Z,100287.17
2018-10-11T19:10:34.328Z,100296.80
2018-10-11T19:13:03.688Z,100302.67
2018-10-11T19:15:32.690Z,100301.21
2018-10-11T19:18:01.699Z,100300.10
2018-10-11T19:20:30.675Z,100302.53
2018-10-11T19:22:59.709Z,100302.09
2018-10-11T19:25:28.792Z,100299.20
2018-10-11T19:27:57.981Z,100303.07
2018-10-11T19:30:26.995Z,100290.61
2018-10-11T19:32:56.072Z,100294.91
2018-10-11T19:35:25.045Z,100286.55
2018-10-11T19:37:54.099Z,100280.86
2018-10-11T19:40:23.211Z,100289.05
2018-10-11T19:42:52.237Z,100284.05
2018-10-11T19:45:21.232Z,100290.16
2018-10-11T19:47:50.228Z,100288.66
2018-10-11T19:50:19.223Z,100283.11
2018-10-11T19:52:48.206Z,100286.95
2018-10-11T19:55:17.198Z,100276.72
2018-10-11T19:57:46.556Z,100276.69
2018-10-11T20:00:15.760Z,100276.99
2018-10-11T20:02:44.800Z,100265.13
2018-10-11T20:05:13.792Z,100261.74
2018-10-11T20:07:42.795Z,100254.27
2018-10-11T20:10:11.777Z,100263.64
2018-10-11T20:12:40.836Z,100253.77
2018-10-11T20:15:09.967Z,100249.59
2018-10-11T20:17:39.012Z,100256.49
2018-10-11T20:20:08.071Z,100260.14
2018-10-11T20:22:37.096Z,100250.84
2018-10-11T20:25:06.655Z,100259.89
2018-10-11T20:27:35.914Z,100268.13
2018-10-11T20:30:05.647Z,100271.84
2018-10-11T20:32:34.839Z,100268.13
2018-10-11T20:35:04.191Z,100287.83
2018-10-11T20:37:33.826Z,100281.14
2018-10-11T20:40:03.174Z,100284.65
2018-10-11T20:42:32.166Z,100290.66
2018-10-11T20:45:01.152Z,100288.08
2018-10-11T20:47:30.257Z,100291.80
2018-10-11T20:49:59.349Z,100299.13
2018-10-11T20:52:28.750Z,100310.11
2018-10-11T20:54:57.794Z,100311.58
2018-10-11T20:57:26.833Z,100314.92
2018-10-11T20:59:55.796Z,100328.86
2018-10-11T21:02:24.885Z,100318.73
2018-10-11T21:04:53.937Z,100319.63
2018-10-11T21:07:22.923Z,100321.55
2018-10-11T21:09:52.128Z,100316.11
2018-10-11T21:12:21.144Z,100321.91
2018-10-11T21:14:50.149Z,100330.28
2018-10-11T21:17:19.155Z,100329.67
2018-10-11T21:19:48.249Z,100324.78
2018-10-11T21:22:17.301Z,100328.65
2018-10-11T21:24:46.364Z,100336.86
2018-10-11T21:27:15.460Z,100334.56
2018-10-11T21:29:44.565Z,100335.13
2018-10-11T21:32:13.616Z,100338.16
2018-10-11T21:34:42.625Z,100340.41
2018-10-11T21:37:11.648Z,100343.02
2018-10-11T21:39:40.761Z,100342.33
2018-10-11T21:42:09.816Z,100341.67
2018-10-11T21:44:38.958Z,100343.90
2018-10-11T21:47:08.110Z,100355.80
2018-10-11T21:49:37.213Z,100356.02
2018-10-11T21:52:06.197Z,100352.64
2018-10-11T21:54:35.165Z,100354.00
2018-10-11T21:57:04.129Z,100349.30
2018-10-11T21:59:33.301Z,100351.86
2018-10-11T22:02:02.435Z,100354.58
2018-10-11T22:04:31.467Z,100350.68
2018-10-11T22:07:00.539Z,100353.80
2018-10-11T22:09:29.575Z,100351.65
2018-10-11T22:11:58.667Z,100358.60
2018-10-11T22:14:27.778Z,100361.41
2018-10-11T22:16:57.002Z,100362.02
2018-10-11T22:19:26.072Z,100361.72
2018-10-11T22:21:55.142Z,100365.22
2018-10-11T22:24:24.199Z,100359.94
2018-10-11T22:26:53.241Z,100356.84
2018-10-11T22:29:22.244Z,100350.41
2018-10-11T22:31:51.318Z,100350.97
2018-10-11T22:34:20.280Z,100350.23
2018-10-11T22:36:49.391Z,100343.48
2018-10-11T22:39:18.306Z,100341.25
2018-10-11T22:41:47.302Z,100337.02
2018-10-11T22:44:16.383Z,100340.15
2018-10-11T22:46:45.354Z,100348.11
2018-10-11T22:49:14.416Z,100342.67
2018-10-11T22:51:43.548Z,100337.98
2018-10-11T22:54:12.603Z,100332.89
2018-10-11T22:56:41.649Z,100334.47
2018-10-11T22:59:10.740Z,100332.89
2018-10-11T23:01:39.743Z,100338.78
2018-10-11T23:04:08.748Z,100352.09
2018-10-11T23:06:37.822Z,100348.91
2018-10-11T23:09:07.740Z,100352.50
2018-10-11T23:11:36.761Z,100338.47
2018-10-11T23:14:06.020Z,100344.11
2018-10-11T23:16:35.024Z,100339.03
2018-10-11T23:19:04.067Z,100333.76
2018-10-11T23:21:33.007Z,100341.87
2018-10-11T23:24:02.068Z,100344.05
2018-10-11T23:26:31.098Z,100342.91
2018-10-11T23:29:00.103Z,100340.44
2018-10-11T23:31:29.123Z,100344.76
2018-10-11T23:33:58.123Z,100345.55
2018-10-11T23:36:27.096Z,100348.48
2018-10-11T23:38:56.117Z,100348.58
2018-10-11T23:41:25.203Z,100350.91
2018-10-11T23:43:54.402Z,100356.32
2018-10-11T23:46:23.656Z,100357.67
2018-10-11T23:48:52.679Z,100366.11
2018-10-11T23:51:21.795Z,100366.67
2018-10-11T23:53:50.841Z,100370.96
2018-10-11T23:56:19.877Z,100368.01
2018-10-11T23:58:48.871Z,100363.44
